sensor_id;sensor_type;location;lat;lon;timestamp;P1;durP1;ratioP1;P2;durP2;ratioP2
17596;SDS011;8917;50.942;6.946;2023-01-29T00:01:14;44.53;;;31.47;;
17596;SDS011;8917;50.942;6.946;2023-01-29T00:03:41;49.57;;;33.33;;
17596;SDS011;8917;50.942;6.946;2023-01-29T00:06:08;46.70;;;33.17;;
17596;SDS011;8917;50.942;6.946;2023-01-29T00:08:37;45.83;;;33.27;;
17596;SDS011;8917;50.942;6.946;2023-01-29T00:11:05;44.30;;;32.93;;
17596;SDS011;8917;50.942;6.946;2023-01-29T00:13:32;47.40;;;34.47;;
17596;SDS011;8917;50.942;6.946;2023-01-29T00:15:59;47.03;;;32.63;;
17596;SDS011;8917;50.942;6.946;2023-01-29T00:18:29;47.67;;;34.00;;
17596;SDS011;8917;50.942;6.946;2023-01-29T00:20:56;48.20;;;34.33;;
17596;SDS011;8917;50.942;6.946;2023-01-29T00:23:24;48.53;;;31.93;;
17596;SDS011;8917;50.942;6.946;2023-01-29T00:25:51;48.93;;;32.50;;
17596;SDS011;8917;50.942;6.946;2023-01-29T00:28:18;43.90;;;30.77;;
17596;SDS011;8917;50.942;6.946;2023-01-29T00:30:45;45.23;;;30.07;;
17596;SDS011;8917;50.942;6.946;2023-01-29T00:33:12;46.23;;;31.13;;
17596;SDS011;8917;50.942;6.946;2023-01-29T00:35:41;44.00;;;30.80;;
17596;SDS011;8917;50.942;6.946;2023-01-29T00:38:08;49.73;;;35.17;;
17596;SDS011;8917;50.942;6.946;2023-01-29T00:40:36;45.53;;;32.47;;
17596;SDS011;8917;50.942;6.946;2023-01-29T00:43:17;44.67;;;31.87;;
17596;SDS011;8917;50.942;6.946;2023-01-29T00:46:02;43.93;;;30.13;;
17596;SDS011;8917;50.942;6.946;2023-01-29T00:48:30;43.97;;;30.27;;
17596;SDS011;8917;50.942;6.946;2023-01-29T00:50:59;45.90;;;32.33;;
17596;SDS011;8917;50.942;6.946;2023-01-29T00:53:26;42.17;;;29.63;;
17596;SDS011;8917;50.942;6.946;2023-01-29T00:55:54;42.93;;;29.27;;
17596;SDS011;8917;50.942;6.946;2023-01-29T00:58:21;42.57;;;29.50;;
17596;SDS011;8917;50.942;6.946;2023-01-29T01:00:52;42.30;;;28.87;;
17596;SDS011;8917;50.942;6.946;2023-01-29T01:03:19;41.70;;;28.50;;
17596;SDS011;8917;50.942;6.946;2023-01-29T01:05:45;43.70;;;29.27;;
17596;SDS011;8917;50.942;6.946;2023-01-29T01:08:14;44.17;;;29.67;;
17596;SDS011;8917;50.942;6.946;2023-01-29T01:11:00;41.03;;;29.17;;
17596;SDS011;8917;50.942;6.946;2023-01-29T01:13:27;43.13;;;30.10;;
17596;SDS011;8917;50.942;6.946;2023-01-29T01:15:55;43.63;;;30.73;;
17596;SDS011;8917;50.942;6.946;2023-01-29T01:18:23;44.17;;;30.33;;
17596;SDS011;8917;50.942;6.946;2023-01-29T01:20:55;45.73;;;30.17;;
17596;SDS011;8917;50.942;6.946;2023-01-29T01:23:25;41.50;;;29.60;;
17596;SDS011;8917;50.942;6.946;2023-01-29T01:25:52;42.63;;;29.70;;
17596;SDS011;8917;50.942;6.946;2023-01-29T01:28:19;40.50;;;28.87;;
17596;SDS011;8917;50.942;6.946;2023-01-29T01:30:46;45.83;;;31.43;;
17596;SDS011;8917;50.942;6.946;2023-01-29T01:33:13;42.27;;;29.53;;
17596;SDS011;8917;50.942;6.946;2023-01-29T01:35:41;42.23;;;29.20;;
17596;SDS011;8917;50.942;6.946;2023-01-29T01:38:08;43.87;;;30.70;;
17596;SDS011;8917;50.942;6.946;2023-01-29T01:40:37;44.63;;;30.87;;
17596;SDS011;8917;50.942;6.946;2023-01-29T01:43:09;41.17;;;30.13;;
17596;SDS011;8917;50.942;6.946;2023-01-29T01:45:36;42.77;;;30.40;;
17596;SDS011;8917;50.942;6.946;2023-01-29T01:48:04;48.07;;;30.77;;
17596;SDS011;8917;50.942;6.946;2023-01-29T01:50:33;42.63;;;30.03;;
17596;SDS011;8917;50.942;6.946;2023-01-29T01:53:03;46.30;;;30.63;;
17596;SDS011;8917;50.942;6.946;2023-01-29T01:55:32;44.00;;;31.03;;
17596;SDS011;8917;50.942;6.946;2023-01-29T01:58:04;42.30;;;30.57;;
17596;SDS011;8917;50.942;6.946;2023-01-29T02:00:32;42.00;;;30.03;;
17596;SDS011;8917;50.942;6.946;2023-01-29T02:02:59;42.43;;;30.40;;
17596;SDS011;8917;50.942;6.946;2023-01-29T02:05:45;41.47;;;29.70;;
17596;SDS011;8917;50.942;6.946;2023-01-29T02:08:40;42.77;;;30.17;;
17596;SDS011;8917;50.942;6.946;2023-01-29T02:11:26;40.87;;;29.90;;
17596;SDS011;8917;50.942;6.946;2023-01-29T02:13:54;40.80;;;29.37;;
17596;SDS011;8917;50.942;6.946;2023-01-29T02:16:22;46.30;;;29.83;;
17596;SDS011;8917;50.942;6.946;2023-01-29T02:18:50;42.23;;;28.83;;
17596;SDS011;8917;50.942;6.946;2023-01-29T02:21:38;38.03;;;28.37;;
17596;SDS011;8917;50.942;6.946;2023-01-29T02:26:56;39.03;;;27.47;;
17596;SDS011;8917;50.942;6.946;2023-01-29T02:29:27;34.27;;;27.30;;
17596;SDS011;8917;50.942;6.946;2023-01-29T02:32:07;39.10;;;28.23;;
17596;SDS011;8917;50.942;6.946;2023-01-29T02:34:37;40.60;;;28.57;;
17596;SDS011;8917;50.942;6.946;2023-01-29T02:37:25;39.40;;;28.87;;
17596;SDS011;8917;50.942;6.946;2023-01-29T02:39:59;36.93;;;27.50;;
17596;SDS011;8917;50.942;6.946;2023-01-29T02:42:30;40.23;;;26.97;;
17596;SDS011;8917;50.942;6.946;2023-01-29T02:45:03;36.30;;;26.77;;
17596;SDS011;8917;50.942;6.946;2023-01-29T02:47:33;35.70;;;27.13;;
17596;SDS011;8917;50.942;6.946;2023-01-29T02:50:02;35.47;;;26.37;;
17596;SDS011;8917;50.942;6.946;2023-01-29T02:52:32;37.13;;;26.60;;
17596;SDS011;8917;50.942;6.946;2023-01-29T02:55:03;31.80;;;24.40;;
17596;SDS011;8917;50.942;6.946;2023-01-29T02:57:35;29.97;;;23.17;;
17596;SDS011;8917;50.942;6.946;2023-01-29T03:00:05;28.47;;;22.80;;
17596;SDS011;8917;50.942;6.946;2023-01-29T03:02:37;31.23;;;23.00;;
17596;SDS011;8917;50.942;6.946;2023-01-29T03:05:08;33.33;;;23.57;;
17596;SDS011;8917;50.942;6.946;2023-01-29T03:07:39;31.40;;;24.80;;
17596;SDS011;8917;50.942;6.946;2023-01-29T03:10:11;32.63;;;25.10;;
17596;SDS011;8917;50.942;6.946;2023-01-29T03:12:39;31.23;;;24.03;;
17596;SDS011;8917;50.942;6.946;2023-01-29T03:15:09;32.17;;;24.50;;
17596;SDS011;8917;50.942;6.946;2023-01-29T03:17:40;34.63;;;25.97;;
17596;SDS011;8917;50.942;6.946;2023-01-29T03:20:11;33.10;;;26.73;;
17596;SDS011;8917;50.942;6.946;2023-01-29T03:22:39;35.17;;;26.07;;
17596;SDS011;8917;50.942;6.946;2023-01-29T03:25:10;34.53;;;26.70;;
17596;SDS011;8917;50.942;6.946;2023-01-29T03:27:56;38.30;;;29.27;;
17596;SDS011;8917;50.942;6.946;2023-01-29T03:30:44;34.63;;;26.47;;
17596;SDS011;8917;50.942;6.946;2023-01-29T03:33:31;35.67;;;26.20;;
17596;SDS011;8917;50.942;6.946;2023-01-29T03:36:04;34.27;;;26.80;;
17596;SDS011;8917;50.942;6.946;2023-01-29T03:38:32;33.43;;;25.90;;
17596;SDS011;8917;50.942;6.946;2023-01-29T03:41:01;36.93;;;27.83;;
17596;SDS011;8917;50.942;6.946;2023-01-29T03:43:30;34.47;;;26.20;;
17596;SDS011;8917;50.942;6.946;2023-01-29T03:46:02;34.93;;;26.50;;
17596;SDS011;8917;50.942;6.946;2023-01-29T03:48:33;35.60;;;26.23;;
17596;SDS011;8917;50.942;6.946;2023-01-29T03:51:05;32.77;;;25.40;;
17596;SDS011;8917;50.942;6.946;2023-01-29T03:53:40;36.00;;;26.73;;
17596;SDS011;8917;50.942;6.946;2023-01-29T03:56:12;37.03;;;27.10;;
17596;SDS011;8917;50.942;6.946;2023-01-29T03:58:42;34.43;;;25.27;;
17596;SDS011;8917;50.942;6.946;2023-01-29T04:01:13;32.37;;;25.00;;
17596;SDS011;8917;50.942;6.946;2023-01-29T04:03:46;35.03;;;25.73;;
17596;SDS011;8917;50.942;6.946;2023-01-29T04:06:15;34.00;;;25.17;;
17596;SDS011;8917;50.942;6.946;2023-01-29T04:08:45;35.30;;;26.40;;
17596;SDS011;8917;50.942;6.946;2023-01-29T04:11:15;33.17;;;26.10;;
17596;SDS011;8917;50.942;6.946;2023-01-29T04:13:43;33.40;;;25.70;;
17596;SDS011;8917;50.942;6.946;2023-01-29T04:16:14;37.43;;;26.80;;
17596;SDS011;8917;50.942;6.946;2023-01-29T04:18:43;33.27;;;25.27;;
17596;SDS011;8917;50.942;6.946;2023-01-29T04:21:11;35.33;;;26.23;;
17596;SDS011;8917;50.942;6.946;2023-01-29T04:23:39;35.13;;;25.73;;
17596;SDS011;8917;50.942;6.946;2023-01-29T04:26:14;35.20;;;26.83;;
17596;SDS011;8917;50.942;6.946;2023-01-29T04:28:49;34.00;;;25.60;;
17596;SDS011;8917;50.942;6.946;2023-01-29T04:31:21;33.80;;;25.63;;
17596;SDS011;8917;50.942;6.946;2023-01-29T04:33:51;34.20;;;26.43;;
17596;SDS011;8917;50.942;6.946;2023-01-29T04:36:23;33.33;;;25.80;;
17596;SDS011;8917;50.942;6.946;2023-01-29T04:38:56;33.70;;;25.60;;
17596;SDS011;8917;50.942;6.946;2023-01-29T04:41:24;37.30;;;24.63;;
17596;SDS011;8917;50.942;6.946;2023-01-29T04:43:56;36.07;;;26.10;;
17596;SDS011;8917;50.942;6.946;2023-01-29T04:46:26;36.03;;;26.13;;
17596;SDS011;8917;50.942;6.946;2023-01-29T04:48:59;33.73;;;25.63;;
17596;SDS011;8917;50.942;6.946;2023-01-29T04:51:31;35.43;;;25.00;;
17596;SDS011;8917;50.942;6.946;2023-01-29T04:54:03;35.93;;;26.40;;
17596;SDS011;8917;50.942;6.946;2023-01-29T04:56:33;32.57;;;25.50;;
17596;SDS011;8917;50.942;6.946;2023-01-29T04:59:02;33.80;;;25.47;;
17596;SDS011;8917;50.942;6.946;2023-01-29T05:01:32;35.77;;;26.43;;
17596;SDS011;8917;50.942;6.946;2023-01-29T05:04:00;31.83;;;24.80;;
17596;SDS011;8917;50.942;6.946;2023-01-29T05:06:28;36.40;;;25.67;;
17596;SDS011;8917;50.942;6.946;2023-01-29T05:08:56;34.70;;;25.40;;
17596;SDS011;8917;50.942;6.946;2023-01-29T05:11:25;33.33;;;26.13;;
17596;SDS011;8917;50.942;6.946;2023-01-29T05:13:52;33.43;;;24.73;;
17596;SDS011;8917;50.942;6.946;2023-01-29T05:16:20;31.67;;;25.47;;
17596;SDS011;8917;50.942;6.946;2023-01-29T05:18:49;33.30;;;25.33;;
17596;SDS011;8917;50.942;6.946;2023-01-29T05:21:17;33.03;;;25.87;;
17596;SDS011;8917;50.942;6.946;2023-01-29T05:23:44;33.47;;;24.90;;
17596;SDS011;8917;50.942;6.946;2023-01-29T05:26:21;32.67;;;25.10;;
17596;SDS011;8917;50.942;6.946;2023-01-29T05:29:06;32.70;;;24.80;;
17596;SDS011;8917;50.942;6.946;2023-01-29T05:31:34;35.10;;;26.03;;
17596;SDS011;8917;50.942;6.946;2023-01-29T05:34:02;34.93;;;25.53;;
17596;SDS011;8917;50.942;6.946;2023-01-29T05:36:29;33.57;;;24.97;;
17596;SDS011;8917;50.942;6.946;2023-01-29T05:38:56;33.60;;;25.30;;
17596;SDS011;8917;50.942;6.946;2023-01-29T05:41:23;32.43;;;24.17;;
17596;SDS011;8917;50.942;6.946;2023-01-29T05:43:51;31.70;;;24.00;;
17596;SDS011;8917;50.942;6.946;2023-01-29T05:46:18;30.77;;;23.33;;
17596;SDS011;8917;50.942;6.946;2023-01-29T05:48:45;31.87;;;23.77;;
17596;SDS011;8917;50.942;6.946;2023-01-29T05:51:13;30.20;;;23.27;;
17596;SDS011;8917;50.942;6.946;2023-01-29T05:53:41;32.57;;;24.37;;
17596;SDS011;8917;50.942;6.946;2023-01-29T05:56:08;30.07;;;22.57;;
17596;SDS011;8917;50.942;6.946;2023-01-29T05:58:35;32.13;;;22.43;;
17596;SDS011;8917;50.942;6.946;2023-01-29T06:01:08;30.00;;;23.07;;
17596;SDS011;8917;50.942;6.946;2023-01-29T06:03:35;33.17;;;26.00;;
17596;SDS011;8917;50.942;6.946;2023-01-29T06:06:03;33.17;;;23.23;;
17596;SDS011;8917;50.942;6.946;2023-01-29T06:08:31;31.57;;;23.23;;
17596;SDS011;8917;50.942;6.946;2023-01-29T06:10:58;30.13;;;22.97;;
17596;SDS011;8917;50.942;6.946;2023-01-29T06:13:26;32.40;;;24.10;;
17596;SDS011;8917;50.942;6.946;2023-01-29T06:15:53;28.80;;;22.20;;
17596;SDS011;8917;50.942;6.946;2023-01-29T06:18:20;30.40;;;22.87;;
17596;SDS011;8917;50.942;6.946;2023-01-29T06:20:47;32.17;;;23.50;;
17596;SDS011;8917;50.942;6.946;2023-01-29T06:23:14;28.83;;;22.30;;
17596;SDS011;8917;50.942;6.946;2023-01-29T06:25:43;31.63;;;22.73;;
17596;SDS011;8917;50.942;6.946;2023-01-29T06:28:10;32.30;;;23.97;;
17596;SDS011;8917;50.942;6.946;2023-01-29T06:30:37;34.33;;;23.43;;
17596;SDS011;8917;50.942;6.946;2023-01-29T06:33:04;29.70;;;22.67;;
17596;SDS011;8917;50.942;6.946;2023-01-29T06:35:32;30.00;;;23.07;;
17596;SDS011;8917;50.942;6.946;2023-01-29T06:37:59;29.73;;;23.20;;
17596;SDS011;8917;50.942;6.946;2023-01-29T06:40:26;33.40;;;24.30;;
17596;SDS011;8917;50.942;6.946;2023-01-29T06:42:54;31.17;;;24.13;;
17596;SDS011;8917;50.942;6.946;2023-01-29T06:45:21;30.03;;;23.37;;
17596;SDS011;8917;50.942;6.946;2023-01-29T06:47:49;30.03;;;23.40;;
17596;SDS011;8917;50.942;6.946;2023-01-29T06:50:16;30.90;;;23.20;;
17596;SDS011;8917;50.942;6.946;2023-01-29T06:52:43;30.43;;;23.53;;
17596;SDS011;8917;50.942;6.946;2023-01-29T06:55:11;30.70;;;23.63;;
17596;SDS011;8917;50.942;6.946;2023-01-29T06:57:38;29.63;;;22.77;;
17596;SDS011;8917;50.942;6.946;2023-01-29T07:00:07;30.43;;;23.33;;
17596;SDS011;8917;50.942;6.946;2023-01-29T07:02:35;32.00;;;23.70;;
17596;SDS011;8917;50.942;6.946;2023-01-29T07:05:02;30.83;;;23.40;;
17596;SDS011;8917;50.942;6.946;2023-01-29T07:07:29;31.70;;;23.20;;
17596;SDS011;8917;50.942;6.946;2023-01-29T07:09:56;37.03;;;24.67;;
17596;SDS011;8917;50.942;6.946;2023-01-29T07:12:23;31.53;;;24.37;;
17596;SDS011;8917;50.942;6.946;2023-01-29T07:14:50;31.57;;;23.97;;
17596;SDS011;8917;50.942;6.946;2023-01-29T07:17:19;28.33;;;22.37;;
17596;SDS011;8917;50.942;6.946;2023-01-29T07:19:46;29.77;;;23.77;;
17596;SDS011;8917;50.942;6.946;2023-01-29T07:22:13;30.97;;;24.03;;
17596;SDS011;8917;50.942;6.946;2023-01-29T07:24:40;31.83;;;24.77;;
17596;SDS011;8917;50.942;6.946;2023-01-29T07:27:07;30.43;;;23.33;;
17596;SDS011;8917;50.942;6.946;2023-01-29T07:29:34;30.10;;;23.13;;
17596;SDS011;8917;50.942;6.946;2023-01-29T07:32:02;31.00;;;22.33;;
17596;SDS011;8917;50.942;6.946;2023-01-29T07:34:30;27.73;;;21.37;;
17596;SDS011;8917;50.942;6.946;2023-01-29T07:36:58;26.87;;;21.60;;
17596;SDS011;8917;50.942;6.946;2023-01-29T07:39:25;26.07;;;21.20;;
17596;SDS011;8917;50.942;6.946;2023-01-29T07:41:52;26.13;;;20.90;;
17596;SDS011;8917;50.942;6.946;2023-01-29T07:44:19;29.70;;;21.47;;
17596;SDS011;8917;50.942;6.946;2023-01-29T07:46:46;27.60;;;21.20;;
17596;SDS011;8917;50.942;6.946;2023-01-29T07:49:14;25.53;;;21.63;;
17596;SDS011;8917;50.942;6.946;2023-01-29T07:51:42;25.83;;;21.00;;
17596;SDS011;8917;50.942;6.946;2023-01-29T07:54:09;27.50;;;21.40;;
17596;SDS011;8917;50.942;6.946;2023-01-29T07:56:37;27.83;;;21.57;;
17596;SDS011;8917;50.942;6.946;2023-01-29T07:59:04;27.63;;;22.87;;
17596;SDS011;8917;50.942;6.946;2023-01-29T08:01:31;32.60;;;23.93;;
17596;SDS011;8917;50.942;6.946;2023-01-29T08:03:58;31.83;;;23.93;;
17596;SDS011;8917;50.942;6.946;2023-01-29T08:06:25;31.87;;;23.97;;
17596;SDS011;8917;50.942;6.946;2023-01-29T08:08:54;30.93;;;23.53;;
17596;SDS011;8917;50.942;6.946;2023-01-29T08:11:21;32.07;;;24.83;;
17596;SDS011;8917;50.942;6.946;2023-01-29T08:13:48;29.60;;;23.17;;
17596;SDS011;8917;50.942;6.946;2023-01-29T08:16:16;30.03;;;23.33;;
17596;SDS011;8917;50.942;6.946;2023-01-29T08:18:43;32.53;;;24.23;;
17596;SDS011;8917;50.942;6.946;2023-01-29T08:21:12;32.00;;;23.87;;
17596;SDS011;8917;50.942;6.946;2023-01-29T08:23:40;32.10;;;23.53;;
17596;SDS011;8917;50.942;6.946;2023-01-29T08:26:08;30.57;;;23.43;;
17596;SDS011;8917;50.942;6.946;2023-01-29T08:28:35;32.70;;;24.10;;
17596;SDS011;8917;50.942;6.946;2023-01-29T08:31:03;30.90;;;23.43;;
17596;SDS011;8917;50.942;6.946;2023-01-29T08:33:31;31.50;;;24.17;;
17596;SDS011;8917;50.942;6.946;2023-01-29T08:35:58;32.10;;;23.47;;
17596;SDS011;8917;50.942;6.946;2023-01-29T08:38:25;30.90;;;23.63;;
17596;SDS011;8917;50.942;6.946;2023-01-29T08:40:52;30.70;;;23.67;;
17596;SDS011;8917;50.942;6.946;2023-01-29T08:43:21;29.67;;;23.50;;
17596;SDS011;8917;50.942;6.946;2023-01-29T08:45:48;28.87;;;23.17;;
17596;SDS011;8917;50.942;6.946;2023-01-29T08:48:15;34.00;;;24.93;;
17596;SDS011;8917;50.942;6.946;2023-01-29T08:50:42;31.10;;;23.60;;
17596;SDS011;8917;50.942;6.946;2023-01-29T08:53:09;29.93;;;23.53;;
17596;SDS011;8917;50.942;6.946;2023-01-29T08:55:37;31.60;;;22.90;;
17596;SDS011;8917;50.942;6.946;2023-01-29T08:58:05;33.03;;;23.47;;
17596;SDS011;8917;50.942;6.946;2023-01-29T09:00:33;31.17;;;23.47;;
17596;SDS011;8917;50.942;6.946;2023-01-29T09:03:01;29.33;;;23.57;;
17596;SDS011;8917;50.942;6.946;2023-01-29T09:05:28;31.53;;;24.37;;
17596;SDS011;8917;50.942;6.946;2023-01-29T09:07:55;31.20;;;22.47;;
17596;SDS011;8917;50.942;6.946;2023-01-29T09:10:23;30.33;;;23.60;;
17596;SDS011;8917;50.942;6.946;2023-01-29T09:12:50;31.00;;;22.37;;
17596;SDS011;8917;50.942;6.946;2023-01-29T09:15:17;30.60;;;23.13;;
17596;SDS011;8917;50.942;6.946;2023-01-29T09:17:46;30.73;;;23.23;;
17596;SDS011;8917;50.942;6.946;2023-01-29T09:20:14;32.50;;;23.93;;
17596;SDS011;8917;50.942;6.946;2023-01-29T09:22:41;31.40;;;24.17;;
17596;SDS011;8917;50.942;6.946;2023-01-29T09:25:08;34.73;;;25.87;;
17596;SDS011;8917;50.942;6.946;2023-01-29T09:27:36;30.30;;;23.53;;
17596;SDS011;8917;50.942;6.946;2023-01-29T09:30:03;30.37;;;23.00;;
17596;SDS011;8917;50.942;6.946;2023-01-29T09:32:32;30.83;;;23.70;;
17596;SDS011;8917;50.942;6.946;2023-01-29T09:35:01;31.53;;;23.93;;
17596;SDS011;8917;50.942;6.946;2023-01-29T09:37:28;34.07;;;24.50;;
17596;SDS011;8917;50.942;6.946;2023-01-29T09:39:55;30.50;;;23.83;;
17596;SDS011;8917;50.942;6.946;2023-01-29T09:42:23;31.37;;;24.03;;
17596;SDS011;8917;50.942;6.946;2023-01-29T09:44:54;32.60;;;24.27;;
17596;SDS011;8917;50.942;6.946;2023-01-29T09:47:25;33.30;;;24.87;;
17596;SDS011;8917;50.942;6.946;2023-01-29T09:49:54;34.10;;;24.60;;
17596;SDS011;8917;50.942;6.946;2023-01-29T09:52:24;31.67;;;23.93;;
17596;SDS011;8917;50.942;6.946;2023-01-29T09:54:53;31.23;;;23.87;;
17596;SDS011;8917;50.942;6.946;2023-01-29T09:57:23;34.77;;;25.97;;
17596;SDS011;8917;50.942;6.946;2023-01-29T09:59:51;32.87;;;24.10;;
17596;SDS011;8917;50.942;6.946;2023-01-29T10:02:21;33.33;;;24.33;;
17596;SDS011;8917;50.942;6.946;2023-01-29T10:05:02;35.33;;;25.63;;
17596;SDS011;8917;50.942;6.946;2023-01-29T10:07:42;31.37;;;23.43;;
17596;SDS011;8917;50.942;6.946;2023-01-29T10:10:22;34.97;;;23.87;;
17596;SDS011;8917;50.942;6.946;2023-01-29T10:12:52;32.33;;;23.73;;
17596;SDS011;8917;50.942;6.946;2023-01-29T10:15:27;30.13;;;23.43;;
17596;SDS011;8917;50.942;6.946;2023-01-29T10:18:01;33.47;;;23.93;;
17596;SDS011;8917;50.942;6.946;2023-01-29T10:20:42;31.90;;;23.93;;
17596;SDS011;8917;50.942;6.946;2023-01-29T10:23:17;31.23;;;23.50;;
17596;SDS011;8917;50.942;6.946;2023-01-29T10:25:46;31.77;;;25.20;;
17596;SDS011;8917;50.942;6.946;2023-01-29T10:28:15;32.90;;;24.93;;
17596;SDS011;8917;50.942;6.946;2023-01-29T10:30:44;34.00;;;25.33;;
17596;SDS011;8917;50.942;6.946;2023-01-29T10:33:15;34.07;;;25.03;;
17596;SDS011;8917;50.942;6.946;2023-01-29T10:35:45;33.07;;;24.43;;
17596;SDS011;8917;50.942;6.946;2023-01-29T10:38:17;34.87;;;24.60;;
17596;SDS011;8917;50.942;6.946;2023-01-29T10:40:50;33.47;;;25.30;;
17596;SDS011;8917;50.942;6.946;2023-01-29T10:43:21;33.10;;;24.97;;
17596;SDS011;8917;50.942;6.946;2023-01-29T10:45:52;34.07;;;25.27;;
17596;SDS011;8917;50.942;6.946;2023-01-29T10:48:34;34.60;;;25.80;;
17596;SDS011;8917;50.942;6.946;2023-01-29T10:51:07;33.03;;;24.30;;
17596;SDS011;8917;50.942;6.946;2023-01-29T10:53:42;35.37;;;25.37;;
17596;SDS011;8917;50.942;6.946;2023-01-29T10:56:16;36.67;;;25.77;;
17596;SDS011;8917;50.942;6.946;2023-01-29T10:58:47;34.33;;;25.90;;
17596;SDS011;8917;50.942;6.946;2023-01-29T11:01:15;34.73;;;25.07;;
17596;SDS011;8917;50.942;6.946;2023-01-29T11:03:42;33.70;;;25.03;;
17596;SDS011;8917;50.942;6.946;2023-01-29T11:06:11;35.80;;;25.43;;
17596;SDS011;8917;50.942;6.946;2023-01-29T11:08:41;34.63;;;25.87;;
17596;SDS011;8917;50.942;6.946;2023-01-29T11:11:11;35.33;;;25.33;;
17596;SDS011;8917;50.942;6.946;2023-01-29T11:13:41;35.00;;;25.60;;
17596;SDS011;8917;50.942;6.946;2023-01-29T11:16:09;35.10;;;25.70;;
17596;SDS011;8917;50.942;6.946;2023-01-29T11:18:52;34.43;;;25.30;;
17596;SDS011;8917;50.942;6.946;2023-01-29T11:21:19;36.90;;;25.80;;
17596;SDS011;8917;50.942;6.946;2023-01-29T11:23:47;37.57;;;26.37;;
17596;SDS011;8917;50.942;6.946;2023-01-29T11:26:16;36.63;;;25.57;;
17596;SDS011;8917;50.942;6.946;2023-01-29T11:28:46;35.23;;;25.27;;
17596;SDS011;8917;50.942;6.946;2023-01-29T11:31:14;35.53;;;26.03;;
17596;SDS011;8917;50.942;6.946;2023-01-29T11:33:41;34.77;;;25.40;;
17596;SDS011;8917;50.942;6.946;2023-01-29T11:36:18;34.10;;;25.87;;
17596;SDS011;8917;50.942;6.946;2023-01-29T11:38:46;39.53;;;26.83;;
17596;SDS011;8917;50.942;6.946;2023-01-29T11:41:14;35.77;;;24.77;;
17596;SDS011;8917;50.942;6.946;2023-01-29T11:43:47;38.83;;;26.87;;
17596;SDS011;8917;50.942;6.946;2023-01-29T11:46:14;36.77;;;27.43;;
17596;SDS011;8917;50.942;6.946;2023-01-29T11:48:43;35.03;;;26.03;;
17596;SDS011;8917;50.942;6.946;2023-01-29T11:51:19;38.80;;;26.90;;
17596;SDS011;8917;50.942;6.946;2023-01-29T11:53:48;38.10;;;26.07;;
17596;SDS011;8917;50.942;6.946;2023-01-29T11:56:18;38.83;;;26.10;;
17596;SDS011;8917;50.942;6.946;2023-01-29T11:58:48;36.07;;;24.87;;
17596;SDS011;8917;50.942;6.946;2023-01-29T12:01:17;36.83;;;26.27;;
17596;SDS011;8917;50.942;6.946;2023-01-29T12:03:45;39.40;;;26.97;;
17596;SDS011;8917;50.942;6.946;2023-01-29T12:06:16;37.30;;;25.93;;
17596;SDS011;8917;50.942;6.946;2023-01-29T12:08:44;37.13;;;26.67;;
17596;SDS011;8917;50.942;6.946;2023-01-29T12:11:22;38.70;;;26.70;;
17596;SDS011;8917;50.942;6.946;2023-01-29T12:13:53;36.33;;;26.03;;
17596;SDS011;8917;50.942;6.946;2023-01-29T12:16:22;36.30;;;25.90;;
17596;SDS011;8917;50.942;6.946;2023-01-29T12:18:52;36.77;;;26.43;;
17596;SDS011;8917;50.942;6.946;2023-01-29T12:21:22;33.67;;;24.67;;
17596;SDS011;8917;50.942;6.946;2023-01-29T12:23:52;37.57;;;26.33;;
17596;SDS011;8917;50.942;6.946;2023-01-29T12:26:24;35.73;;;25.57;;
17596;SDS011;8917;50.942;6.946;2023-01-29T12:28:58;36.73;;;25.03;;
17596;SDS011;8917;50.942;6.946;2023-01-29T12:31:32;36.17;;;25.73;;
17596;SDS011;8917;50.942;6.946;2023-01-29T12:34:04;36.80;;;26.20;;
17596;SDS011;8917;50.942;6.946;2023-01-29T12:36:35;36.23;;;26.47;;
17596;SDS011;8917;50.942;6.946;2023-01-29T12:39:07;36.53;;;25.27;;
17596;SDS011;8917;50.942;6.946;2023-01-29T12:41:36;37.33;;;26.17;;
17596;SDS011;8917;50.942;6.946;2023-01-29T12:44:06;32.07;;;24.00;;
17596;SDS011;8917;50.942;6.946;2023-01-29T12:46:36;35.87;;;26.77;;
17596;SDS011;8917;50.942;6.946;2023-01-29T12:49:08;42.77;;;27.37;;
17596;SDS011;8917;50.942;6.946;2023-01-29T12:51:38;35.43;;;24.50;;
17596;SDS011;8917;50.942;6.946;2023-01-29T12:54:06;33.60;;;24.80;;
17596;SDS011;8917;50.942;6.946;2023-01-29T12:56:35;38.57;;;25.77;;
17596;SDS011;8917;50.942;6.946;2023-01-29T12:59:11;35.43;;;26.13;;
17596;SDS011;8917;50.942;6.946;2023-01-29T13:01:42;36.23;;;25.73;;
17596;SDS011;8917;50.942;6.946;2023-01-29T13:04:12;37.77;;;23.93;;
17596;SDS011;8917;50.942;6.946;2023-01-29T13:06:41;38.67;;;26.20;;
17596;SDS011;8917;50.942;6.946;2023-01-29T13:09:10;34.57;;;25.27;;
17596;SDS011;8917;50.942;6.946;2023-01-29T13:11:40;35.40;;;24.97;;
17596;SDS011;8917;50.942;6.946;2023-01-29T13:14:11;41.57;;;30.03;;
17596;SDS011;8917;50.942;6.946;2023-01-29T13:16:40;35.37;;;25.00;;
17596;SDS011;8917;50.942;6.946;2023-01-29T13:19:13;35.90;;;24.87;;
17596;SDS011;8917;50.942;6.946;2023-01-29T13:21:40;35.30;;;24.13;;
17596;SDS011;8917;50.942;6.946;2023-01-29T13:24:09;38.17;;;24.97;;
17596;SDS011;8917;50.942;6.946;2023-01-29T13:26:37;35.60;;;24.30;;
17596;SDS011;8917;50.942;6.946;2023-01-29T13:29:04;33.03;;;23.43;;
17596;SDS011;8917;50.942;6.946;2023-01-29T13:31:33;36.50;;;25.13;;
17596;SDS011;8917;50.942;6.946;2023-01-29T13:34:03;36.03;;;24.90;;
17596;SDS011;8917;50.942;6.946;2023-01-29T13:36:33;32.87;;;23.83;;
17596;SDS011;8917;50.942;6.946;2023-01-29T13:39:02;35.87;;;23.93;;
17596;SDS011;8917;50.942;6.946;2023-01-29T13:41:30;34.00;;;24.87;;
17596;SDS011;8917;50.942;6.946;2023-01-29T13:43:58;36.27;;;23.83;;
17596;SDS011;8917;50.942;6.946;2023-01-29T13:46:25;34.80;;;23.40;;
17596;SDS011;8917;50.942;6.946;2023-01-29T13:48:55;32.77;;;23.20;;
17596;SDS011;8917;50.942;6.946;2023-01-29T13:51:27;30.70;;;21.50;;
17596;SDS011;8917;50.942;6.946;2023-01-29T13:53:57;29.57;;;21.97;;
17596;SDS011;8917;50.942;6.946;2023-01-29T13:56:27;34.03;;;23.13;;
17596;SDS011;8917;50.942;6.946;2023-01-29T13:58:55;29.47;;;21.23;;
17596;SDS011;8917;50.942;6.946;2023-01-29T14:04:20;34.83;;;23.07;;
17596;SDS011;8917;50.942;6.946;2023-01-29T14:06:50;29.90;;;22.53;;
17596;SDS011;8917;50.942;6.946;2023-01-29T14:09:30;30.03;;;22.03;;
17596;SDS011;8917;50.942;6.946;2023-01-29T14:11:57;28.57;;;20.87;;
17596;SDS011;8917;50.942;6.946;2023-01-29T14:17:06;29.50;;;20.20;;
17596;SDS011;8917;50.942;6.946;2023-01-29T14:19:35;29.87;;;20.53;;
17596;SDS011;8917;50.942;6.946;2023-01-29T14:22:03;28.67;;;20.80;;
17596;SDS011;8917;50.942;6.946;2023-01-29T14:24:30;29.60;;;20.53;;
17596;SDS011;8917;50.942;6.946;2023-01-29T14:26:59;30.00;;;20.43;;
17596;SDS011;8917;50.942;6.946;2023-01-29T14:29:27;28.23;;;19.73;;
17596;SDS011;8917;50.942;6.946;2023-01-29T14:31:56;29.73;;;20.67;;
17596;SDS011;8917;50.942;6.946;2023-01-29T14:34:25;28.93;;;19.77;;
17596;SDS011;8917;50.942;6.946;2023-01-29T14:36:55;29.97;;;20.83;;
17596;SDS011;8917;50.942;6.946;2023-01-29T14:39:28;27.30;;;19.67;;
17596;SDS011;8917;50.942;6.946;2023-01-29T14:41:57;33.63;;;20.70;;
17596;SDS011;8917;50.942;6.946;2023-01-29T14:47:16;30.90;;;19.93;;
17596;SDS011;8917;50.942;6.946;2023-01-29T14:49:47;29.70;;;19.60;;
17596;SDS011;8917;50.942;6.946;2023-01-29T14:52:16;29.00;;;19.97;;
17596;SDS011;8917;50.942;6.946;2023-01-29T14:54:43;25.13;;;18.33;;
17596;SDS011;8917;50.942;6.946;2023-01-29T14:57:12;24.07;;;17.13;;
17596;SDS011;8917;50.942;6.946;2023-01-29T14:59:43;24.93;;;15.83;;